sensor_id;sensor_type;location;lat;lon;timestamp;pressure;altitude;pressure_sealevel;temperature;humidity
54936;BME280;40838;50.676;7.838;2022-11-03T00:01:13;98568.84;;;7.79;100.00
54936;BME280;40838;50.676;7.838;2022-11-03T00:03:40;98568.69;;;7.74;100.00
54936;BME280;40838;50.676;7.838;2022-11-03T00:06:07;98578.09;;;7.88;100.00
54936;BME280;40838;50.676;7.838;2022-11-03T00:08:36;98573.06;;;7.87;100.00
54936;BME280;40838;50.676;7.838;2022-11-03T00:11:09;98588.16;;;7.91;100.00
54936;BME280;40838;50.676;7.838;2022-11-03T00:13:37;98577.56;;;8.05;100.00
54936;BME280;40838;50.676;7.838;2022-11-03T00:16:05;98570.13;;;7.95;100.00
54936;BME280;40838;50.676;7.838;2022-11-03T00:18:33;98561.16;;;7.84;100.00
54936;BME280;40838;50.676;7.838;2022-11-03T00:21:02;98555.97;;;7.71;100.00
54936;BME280;40838;50.676;7.838;2022-11-03T00:23:30;98555.03;;;7.90;100.00
54936;BME280;40838;50.676;7.838;2022-11-03T00:26:05;98569.38;;;8.13;100.00
54936;BME280;40838;50.676;7.838;2022-11-03T00:28:33;98561.59;;;8.25;100.00
54936;BME280;40838;50.676;7.838;2022-11-03T00:31:04;98558.16;;;8.24;100.00
54936;BME280;40838;50.676;7.838;2022-11-03T00:33:31;98549.53;;;8.17;100.00
54936;BME280;40838;50.676;7.838;2022-11-03T00:36:00;98542.44;;;7.99;100.00
54936;BME280;40838;50.676;7.838;2022-11-03T00:38:27;98540.28;;;7.89;100.00
54936;BME280;40838;50.676;7.838;2022-11-03T00:40:55;98546.69;;;7.75;100.00
54936;BME280;40838;50.676;7.838;2022-11-03T00:43:23;98548.47;;;7.75;100.00
54936;BME280;40838;50.676;7.838;2022-11-03T00:45:50;98543.09;;;7.63;100.00
54936;BME280;40838;50.676;7.838;2022-11-03T00:48:31;98548.41;;;7.56;100.00
54936;BME280;40838;50.676;7.838;2022-11-03T00:51:05;98545.00;;;7.56;100.00
54936;BME280;40838;50.676;7.838;2022-11-03T00:53:34;98544.78;;;7.82;100.00
54936;BME280;40838;50.676;7.838;2022-11-03T00:56:01;98538.47;;;7.90;100.00
54936;BME280;40838;50.676;7.838;2022-11-03T00:58:31;98536.03;;;7.88;100.00
54936;BME280;40838;50.676;7.838;2022-11-03T01:00:59;98532.50;;;7.76;100.00
54936;BME280;40838;50.676;7.838;2022-11-03T01:03:27;98529.53;;;7.66;100.00
54936;BME280;40838;50.676;7.838;2022-11-03T01:05:54;98527.34;;;7.63;100.00
54936;BME280;40838;50.676;7.838;2022-11-03T01:08:40;98527.84;;;7.78;100.00
54936;BME280;40838;50.676;7.838;2022-11-03T01:11:08;98529.13;;;7.69;100.00
54936;BME280;40838;50.676;7.838;2022-11-03T01:13:53;98519.03;;;7.66;100.00
54936;BME280;40838;50.676;7.838;2022-11-03T01:16:21;98533.03;;;7.60;100.00
54936;BME280;40838;50.676;7.838;2022-11-03T01:18:48;98527.56;;;7.61;100.00
54936;BME280;40838;50.676;7.838;2022-11-03T01:21:15;98528.00;;;7.58;100.00
54936;BME280;40838;50.676;7.838;2022-11-03T01:23:44;98525.63;;;7.50;100.00
54936;BME280;40838;50.676;7.838;2022-11-03T01:26:13;98530.03;;;7.56;100.00
54936;BME280;40838;50.676;7.838;2022-11-03T01:28:42;98524.59;;;7.51;100.00
54936;BME280;40838;50.676;7.838;2022-11-03T01:31:12;98526.44;;;7.50;100.00
54936;BME280;40838;50.676;7.838;2022-11-03T01:33:40;98525.88;;;7.42;100.00
54936;BME280;40838;50.676;7.838;2022-11-03T01:36:08;98526.31;;;7.39;100.00
54936;BME280;40838;50.676;7.838;2022-11-03T01:38:35;98528.31;;;7.43;100.00
54936;BME280;40838;50.676;7.838;2022-11-03T01:41:06;98516.97;;;7.43;100.00
54936;BME280;40838;50.676;7.838;2022-11-03T01:43:33;98513.97;;;7.39;100.00
54936;BME280;40838;50.676;7.838;2022-11-03T01:46:03;98512.94;;;7.47;100.00
54936;BME280;40838;50.676;7.838;2022-11-03T01:48:33;98506.66;;;7.48;100.00
54936;BME280;40838;50.676;7.838;2022-11-03T01:51:03;98505.00;;;7.54;100.00
54936;BME280;40838;50.676;7.838;2022-11-03T01:53:34;98498.94;;;7.53;100.00
54936;BME280;40838;50.676;7.838;2022-11-03T01:56:05;98494.13;;;7.50;100.00
54936;BME280;40838;50.676;7.838;2022-11-03T01:58:34;98493.44;;;7.61;100.00
54936;BME280;40838;50.676;7.838;2022-11-03T02:01:03;98491.25;;;7.58;100.00
54936;BME280;40838;50.676;7.838;2022-11-03T02:03:36;98484.34;;;7.64;100.00
54936;BME280;40838;50.676;7.838;2022-11-03T02:06:04;98473.41;;;7.67;100.00
54936;BME280;40838;50.676;7.838;2022-11-03T02:08:35;98480.47;;;7.66;100.00
54936;BME280;40838;50.676;7.838;2022-11-03T02:11:05;98483.91;;;7.67;100.00
54936;BME280;40838;50.676;7.838;2022-11-03T02:13:47;98470.78;;;7.67;100.00
54936;BME280;40838;50.676;7.838;2022-11-03T02:16:13;98479.50;;;7.61;100.00
54936;BME280;40838;50.676;7.838;2022-11-03T02:18:41;98479.88;;;7.64;100.00
54936;BME280;40838;50.676;7.838;2022-11-03T02:21:19;98472.69;;;7.53;100.00
54936;BME280;40838;50.676;7.838;2022-11-03T02:23:54;98478.16;;;7.52;100.00
54936;BME280;40838;50.676;7.838;2022-11-03T02:26:26;98468.59;;;7.57;100.00
54936;BME280;40838;50.676;7.838;2022-11-03T02:28:53;98460.78;;;7.50;100.00
54936;BME280;40838;50.676;7.838;2022-11-03T02:31:26;98453.97;;;7.43;100.00
54936;BME280;40838;50.676;7.838;2022-11-03T02:33:58;98464.66;;;7.48;100.00
54936;BME280;40838;50.676;7.838;2022-11-03T02:36:34;98455.78;;;7.49;100.00
54936;BME280;40838;50.676;7.838;2022-11-03T02:39:10;98450.13;;;7.45;100.00
54936;BME280;40838;50.676;7.838;2022-11-03T02:41:40;98439.19;;;7.48;100.00
54936;BME280;40838;50.676;7.838;2022-11-03T02:44:13;98428.56;;;7.43;100.00
54936;BME280;40838;50.676;7.838;2022-11-03T02:46:42;98424.16;;;7.37;100.00
54936;BME280;40838;50.676;7.838;2022-11-03T02:49:09;98415.69;;;7.35;100.00
54936;BME280;40838;50.676;7.838;2022-11-03T02:51:36;98408.88;;;7.27;100.00
54936;BME280;40838;50.676;7.838;2022-11-03T02:54:07;98398.38;;;7.27;100.00
54936;BME280;40838;50.676;7.838;2022-11-03T02:56:44;98407.06;;;7.28;100.00
54936;BME280;40838;50.676;7.838;2022-11-03T02:59:17;98403.25;;;7.24;100.00
54936;BME280;40838;50.676;7.838;2022-11-03T03:01:51;98389.44;;;7.35;100.00
54936;BME280;40838;50.676;7.838;2022-11-03T03:04:27;98395.72;;;7.34;100.00
54936;BME280;40838;50.676;7.838;2022-11-03T03:06:59;98390.16;;;7.42;100.00
54936;BME280;40838;50.676;7.838;2022-11-03T03:09:31;98383.53;;;7.40;100.00
54936;BME280;40838;50.676;7.838;2022-11-03T03:12:04;98382.47;;;7.47;100.00
54936;BME280;40838;50.676;7.838;2022-11-03T03:14:42;98383.06;;;7.49;100.00
54936;BME280;40838;50.676;7.838;2022-11-03T03:17:13;98384.66;;;7.50;100.00
54936;BME280;40838;50.676;7.838;2022-11-03T03:19:49;98374.81;;;7.46;100.00
54936;BME280;40838;50.676;7.838;2022-11-03T03:22:23;98366.88;;;7.53;100.00
54936;BME280;40838;50.676;7.838;2022-11-03T03:24:54;98373.34;;;7.50;100.00
54936;BME280;40838;50.676;7.838;2022-11-03T03:27:26;98367.34;;;7.43;100.00
54936;BME280;40838;50.676;7.838;2022-11-03T03:29:58;98371.25;;;7.34;100.00
54936;BME280;40838;50.676;7.838;2022-11-03T03:32:30;98376.31;;;7.35;100.00
54936;BME280;40838;50.676;7.838;2022-11-03T03:35:00;98376.31;;;7.35;100.00
54936;BME280;40838;50.676;7.838;2022-11-03T03:37:29;98370.03;;;7.36;100.00
54936;BME280;40838;50.676;7.838;2022-11-03T03:40:01;98372.72;;;7.30;100.00
54936;BME280;40838;50.676;7.838;2022-11-03T03:42:32;98362.88;;;7.25;100.00
54936;BME280;40838;50.676;7.838;2022-11-03T03:45:01;98364.69;;;7.24;100.00
54936;BME280;40838;50.676;7.838;2022-11-03T03:47:31;98353.22;;;7.19;100.00
54936;BME280;40838;50.676;7.838;2022-11-03T03:49:59;98350.88;;;7.11;100.00
54936;BME280;40838;50.676;7.838;2022-11-03T03:52:28;98343.44;;;7.08;100.00
54936;BME280;40838;50.676;7.838;2022-11-03T03:54:57;98353.47;;;7.17;100.00
54936;BME280;40838;50.676;7.838;2022-11-03T03:57:25;98352.88;;;7.15;100.00
54936;BME280;40838;50.676;7.838;2022-11-03T03:59:54;98347.84;;;7.14;100.00
54936;BME280;40838;50.676;7.838;2022-11-03T04:02:21;98344.19;;;7.15;100.00
54936;BME280;40838;50.676;7.838;2022-11-03T04:04:48;98346.44;;;7.11;100.00
54936;BME280;40838;50.676;7.838;2022-11-03T04:07:17;98332.78;;;7.02;100.00
54936;BME280;40838;50.676;7.838;2022-11-03T04:10:01;98316.94;;;6.91;100.00
54936;BME280;40838;50.676;7.838;2022-11-03T04:12:28;98320.44;;;6.85;100.00
54936;BME280;40838;50.676;7.838;2022-11-03T04:15:14;98305.75;;;6.77;100.00
54936;BME280;40838;50.676;7.838;2022-11-03T04:17:58;98296.41;;;6.88;100.00
54936;BME280;40838;50.676;7.838;2022-11-03T04:20:42;98301.16;;;6.97;100.00
54936;BME280;40838;50.676;7.838;2022-11-03T04:23:26;98301.75;;;6.99;100.00
54936;BME280;40838;50.676;7.838;2022-11-03T04:25:55;98307.56;;;7.01;100.00
54936;BME280;40838;50.676;7.838;2022-11-03T04:28:24;98311.16;;;7.07;100.00
54936;BME280;40838;50.676;7.838;2022-11-03T04:30:55;98303.59;;;7.17;100.00
54936;BME280;40838;50.676;7.838;2022-11-03T04:33:23;98302.22;;;7.15;100.00
54936;BME280;40838;50.676;7.838;2022-11-03T04:35:50;98297.56;;;7.17;100.00
54936;BME280;40838;50.676;7.838;2022-11-03T04:38:21;98300.97;;;7.17;100.00
54936;BME280;40838;50.676;7.838;2022-11-03T04:40:52;98303.81;;;7.16;100.00
54936;BME280;40838;50.676;7.838;2022-11-03T04:43:21;98301.50;;;7.01;100.00
54936;BME280;40838;50.676;7.838;2022-11-03T04:45:48;98305.97;;;7.00;100.00
54936;BME280;40838;50.676;7.838;2022-11-03T04:48:21;98296.63;;;7.04;100.00
54936;BME280;40838;50.676;7.838;2022-11-03T04:50:51;98297.88;;;7.02;100.00
54936;BME280;40838;50.676;7.838;2022-11-03T04:53:20;98283.91;;;7.08;100.00
54936;BME280;40838;50.676;7.838;2022-11-03T04:55:50;98274.22;;;7.09;100.00
54936;BME280;40838;50.676;7.838;2022-11-03T04:58:19;98279.53;;;7.02;100.00
54936;BME280;40838;50.676;7.838;2022-11-03T05:00:46;98277.63;;;6.84;100.00
54936;BME280;40838;50.676;7.838;2022-11-03T05:03:19;98278.34;;;6.73;100.00
54936;BME280;40838;50.676;7.838;2022-11-03T05:05:50;98280.13;;;6.79;100.00
54936;BME280;40838;50.676;7.838;2022-11-03T05:08:18;98276.84;;;6.84;100.00
54936;BME280;40838;50.676;7.838;2022-11-03T05:10:46;98273.41;;;6.83;100.00
54936;BME280;40838;50.676;7.838;2022-11-03T05:13:18;98281.63;;;6.93;100.00
54936;BME280;40838;50.676;7.838;2022-11-03T05:15:47;98268.91;;;6.90;100.00
54936;BME280;40838;50.676;7.838;2022-11-03T05:18:17;98262.88;;;6.90;100.00
54936;BME280;40838;50.676;7.838;2022-11-03T05:20:50;98267.47;;;6.94;100.00
54936;BME280;40838;50.676;7.838;2022-11-03T05:23:20;98264.06;;;6.94;100.00
54936;BME280;40838;50.676;7.838;2022-11-03T05:25:50;98261.81;;;6.97;100.00
54936;BME280;40838;50.676;7.838;2022-11-03T05:28:23;98263.66;;;6.90;100.00
54936;BME280;40838;50.676;7.838;2022-11-03T05:30:53;98260.66;;;6.87;100.00
54936;BME280;40838;50.676;7.838;2022-11-03T05:33:25;98255.44;;;6.87;100.00
54936;BME280;40838;50.676;7.838;2022-11-03T05:35:54;98244.13;;;6.86;100.00
54936;BME280;40838;50.676;7.838;2022-11-03T05:38:36;98239.69;;;6.87;100.00
54936;BME280;40838;50.676;7.838;2022-11-03T05:41:11;98249.75;;;6.90;100.00
54936;BME280;40838;50.676;7.838;2022-11-03T05:43:40;98241.00;;;6.96;100.00
54936;BME280;40838;50.676;7.838;2022-11-03T05:46:08;98231.91;;;6.98;100.00
54936;BME280;40838;50.676;7.838;2022-11-03T05:48:39;98231.72;;;7.00;100.00
54936;BME280;40838;50.676;7.838;2022-11-03T05:51:16;98219.22;;;6.95;100.00
54936;BME280;40838;50.676;7.838;2022-11-03T05:53:47;98229.53;;;6.97;100.00
54936;BME280;40838;50.676;7.838;2022-11-03T05:56:17;98231.97;;;6.92;100.00
54936;BME280;40838;50.676;7.838;2022-11-03T05:58:45;98229.19;;;6.87;100.00
54936;BME280;40838;50.676;7.838;2022-11-03T06:01:18;98218.16;;;6.85;100.00
54936;BME280;40838;50.676;7.838;2022-11-03T06:03:46;98213.81;;;6.90;100.00
54936;BME280;40838;50.676;7.838;2022-11-03T06:06:20;98221.28;;;6.93;100.00
54936;BME280;40838;50.676;7.838;2022-11-03T06:08:48;98208.22;;;6.87;100.00
54936;BME280;40838;50.676;7.838;2022-11-03T06:11:23;98208.09;;;6.81;100.00
54936;BME280;40838;50.676;7.838;2022-11-03T06:13:51;98210.47;;;6.83;100.00
54936;BME280;40838;50.676;7.838;2022-11-03T06:16:38;98212.50;;;6.81;100.00
54936;BME280;40838;50.676;7.838;2022-11-03T06:19:20;98200.59;;;6.85;100.00
54936;BME280;40838;50.676;7.838;2022-11-03T06:21:50;98204.44;;;6.82;100.00
54936;BME280;40838;50.676;7.838;2022-11-03T06:24:20;98195.34;;;6.85;100.00
54936;BME280;40838;50.676;7.838;2022-11-03T06:26:48;98191.59;;;6.93;100.00
54936;BME280;40838;50.676;7.838;2022-11-03T06:29:17;98193.06;;;6.89;100.00
54936;BME280;40838;50.676;7.838;2022-11-03T06:31:47;98186.97;;;6.95;100.00
54936;BME280;40838;50.676;7.838;2022-11-03T06:34:36;98170.19;;;6.96;100.00
54936;BME280;40838;50.676;7.838;2022-11-03T06:37:22;98170.63;;;6.93;100.00
54936;BME280;40838;50.676;7.838;2022-11-03T06:39:52;98170.19;;;6.96;100.00
54936;BME280;40838;50.676;7.838;2022-11-03T06:42:25;98183.91;;;6.98;100.00
54936;BME280;40838;50.676;7.838;2022-11-03T06:44:52;98182.31;;;6.97;100.00
54936;BME280;40838;50.676;7.838;2022-11-03T06:47:28;98180.91;;;6.94;100.00
54936;BME280;40838;50.676;7.838;2022-11-03T06:49:56;98167.13;;;6.99;100.00
54936;BME280;40838;50.676;7.838;2022-11-03T06:52:30;98167.97;;;6.99;100.00
54936;BME280;40838;50.676;7.838;2022-11-03T06:57:46;98161.94;;;7.11;100.00
54936;BME280;40838;50.676;7.838;2022-11-03T07:00:19;98157.88;;;7.15;100.00
54936;BME280;40838;50.676;7.838;2022-11-03T07:03:00;98155.53;;;7.25;100.00
54936;BME280;40838;50.676;7.838;2022-11-03T07:05:30;98155.25;;;7.33;100.00
54936;BME280;40838;50.676;7.838;2022-11-03T07:08:00;98162.59;;;7.43;100.00
54936;BME280;40838;50.676;7.838;2022-11-03T07:10:30;98167.91;;;7.55;100.00
54936;BME280;40838;50.676;7.838;2022-11-03T07:13:00;98163.22;;;7.57;100.00
54936;BME280;40838;50.676;7.838;2022-11-03T07:15:32;98167.47;;;7.58;100.00
54936;BME280;40838;50.676;7.838;2022-11-03T07:18:00;98156.19;;;7.69;100.00
54936;BME280;40838;50.676;7.838;2022-11-03T07:20:28;98158.63;;;7.82;100.00
54936;BME280;40838;50.676;7.838;2022-11-03T07:22:55;98144.84;;;7.87;100.00
54936;BME280;40838;50.676;7.838;2022-11-03T07:25:27;98142.63;;;7.84;100.00
54936;BME280;40838;50.676;7.838;2022-11-03T07:27:54;98128.06;;;8.00;100.00
54936;BME280;40838;50.676;7.838;2022-11-03T07:30:29;98120.06;;;7.94;100.00
54936;BME280;40838;50.676;7.838;2022-11-03T07:32:59;98112.25;;;7.76;100.00
54936;BME280;40838;50.676;7.838;2022-11-03T07:35:30;98101.94;;;7.63;100.00
54936;BME280;40838;50.676;7.838;2022-11-03T07:38:02;98092.28;;;7.45;100.00
54936;BME280;40838;50.676;7.838;2022-11-03T07:40:46;98086.44;;;7.43;100.00
54936;BME280;40838;50.676;7.838;2022-11-03T07:43:16;98081.59;;;7.46;100.00
54936;BME280;40838;50.676;7.838;2022-11-03T07:45:47;98082.28;;;7.54;100.00
54936;BME280;40838;50.676;7.838;2022-11-03T07:48:20;98063.69;;;7.55;100.00
54936;BME280;40838;50.676;7.838;2022-11-03T07:50:50;98073.16;;;7.56;100.00
54936;BME280;40838;50.676;7.838;2022-11-03T07:53:24;98058.44;;;7.55;100.00
54936;BME280;40838;50.676;7.838;2022-11-03T07:55:55;98055.13;;;7.60;100.00
54936;BME280;40838;50.676;7.838;2022-11-03T07:58:28;98048.16;;;7.65;100.00
54936;BME280;40838;50.676;7.838;2022-11-03T08:00:59;98052.06;;;7.75;100.00
54936;BME280;40838;50.676;7.838;2022-11-03T08:03:37;98043.69;;;8.43;100.00
54936;BME280;40838;50.676;7.838;2022-11-03T08:06:06;98054.72;;;8.80;100.00
54936;BME280;40838;50.676;7.838;2022-11-03T08:08:33;98030.94;;;9.04;100.00
54936;BME280;40838;50.676;7.838;2022-11-03T08:11:01;98037.09;;;8.81;100.00
54936;BME280;40838;50.676;7.838;2022-11-03T08:13:28;98030.13;;;9.32;100.00
54936;BME280;40838;50.676;7.838;2022-11-03T08:15:55;98016.34;;;9.59;100.00
54936;BME280;40838;50.676;7.838;2022-11-03T08:18:23;98014.59;;;9.47;100.00
54936;BME280;40838;50.676;7.838;2022-11-03T08:20:50;98029.91;;;9.34;100.00
54936;BME280;40838;50.676;7.838;2022-11-03T08:23:17;98030.94;;;9.49;100.00
54936;BME280;40838;50.676;7.838;2022-11-03T08:25:44;98022.47;;;10.71;100.00
54936;BME280;40838;50.676;7.838;2022-11-03T08:28:14;98026.16;;;10.97;100.00
54936;BME280;40838;50.676;7.838;2022-11-03T08:30:43;98030.16;;;9.83;100.00
54936;BME280;40838;50.676;7.838;2022-11-03T08:33:10;98030.91;;;9.78;100.00
54936;BME280;40838;50.676;7.838;2022-11-03T08:35:37;98009.97;;;10.88;100.00
54936;BME280;40838;50.676;7.838;2022-11-03T08:38:04;98002.41;;;10.97;100.00
54936;BME280;40838;50.676;7.838;2022-11-03T08:40:31;98001.00;;;11.70;100.00
54936;BME280;40838;50.676;7.838;2022-11-03T08:43:11;98001.34;;;11.84;100.00
54936;BME280;40838;50.676;7.838;2022-11-03T08:45:40;98009.09;;;11.64;100.00
54936;BME280;40838;50.676;7.838;2022-11-03T08:48:07;98000.78;;;11.18;100.00
54936;BME280;40838;50.676;7.838;2022-11-03T08:50:34;98028.44;;;10.88;100.00
54936;BME280;40838;50.676;7.838;2022-11-03T08:53:00;98046.25;;;10.76;100.00
54936;BME280;40838;50.676;7.838;2022-11-03T08:55:27;98028.34;;;11.00;100.00
54936;BME280;40838;50.676;7.838;2022-11-03T08:57:56;98020.50;;;10.83;100.00
54936;BME280;40838;50.676;7.838;2022-11-03T09:00:25;98015.59;;;10.48;100.00
54936;BME280;40838;50.676;7.838;2022-11-03T09:02:53;98008.56;;;10.36;100.00
54936;BME280;40838;50.676;7.838;2022-11-03T09:05:20;98013.81;;;10.53;100.00
54936;BME280;40838;50.676;7.838;2022-11-03T09:07:47;98017.66;;;10.46;100.00
54936;BME280;40838;50.676;7.838;2022-11-03T09:10:14;98004.03;;;10.76;100.00
54936;BME280;40838;50.676;7.838;2022-11-03T09:12:41;97993.91;;;11.17;100.00
54936;BME280;40838;50.676;7.838;2022-11-03T09:15:09;97987.56;;;10.90;100.00
54936;BME280;40838;50.676;7.838;2022-11-03T09:17:36;98001.00;;;11.38;100.00
54936;BME280;40838;50.676;7.838;2022-11-03T09:20:06;97990.59;;;11.96;100.00
54936;BME280;40838;50.676;7.838;2022-11-03T09:22:34;97983.97;;;11.56;100.00
54936;BME280;40838;50.676;7.838;2022-11-03T09:25:01;97974.63;;;12.18;100.00
54936;BME280;40838;50.676;7.838;2022-11-03T09:27:29;97974.03;;;12.68;100.00
54936;BME280;40838;50.676;7.838;2022-11-03T09:29:59;97965.84;;;12.75;100.00
54936;BME280;40838;50.676;7.838;2022-11-03T09:32:27;97948.81;;;12.45;100.00
54936;BME280;40838;50.676;7.838;2022-11-03T09:34:53;97953.13;;;12.67;100.00
54936;BME280;40838;50.676;7.838;2022-11-03T09:37:22;97956.19;;;12.38;100.00
54936;BME280;40838;50.676;7.838;2022-11-03T09:39:49;97950.19;;;12.58;100.00
54936;BME280;40838;50.676;7.838;2022-11-03T09:42:17;97947.69;;;12.31;100.00
54936;BME280;40838;50.676;7.838;2022-11-03T09:44:44;97935.00;;;12.33;100.00
54936;BME280;40838;50.676;7.838;2022-11-03T09:47:19;97931.50;;;13.21;100.00
54936;BME280;40838;50.676;7.838;2022-11-03T09:49:48;97934.69;;;13.08;100.00
54936;BME280;40838;50.676;7.838;2022-11-03T09:52:19;97925.97;;;13.58;100.00
54936;BME280;40838;50.676;7.838;2022-11-03T09:54:48;97922.53;;;13.22;100.00
54936;BME280;40838;50.676;7.838;2022-11-03T09:57:15;97922.47;;;12.86;100.00
54936;BME280;40838;50.676;7.838;2022-11-03T09:59:46;97921.53;;;12.35;100.00
54936;BME280;40838;50.676;7.838;2022-11-03T10:02:20;97908.53;;;12.28;100.00
54936;BME280;40838;50.676;7.838;2022-11-03T10:04:47;97899.53;;;11.76;100.00
54936;BME280;40838;50.676;7.838;2022-11-03T10:07:15;97903.09;;;11.55;100.00
54936;BME280;40838;50.676;7.838;2022-11-03T10:09:44;97895.63;;;11.42;100.00
54936;BME280;40838;50.676;7.838;2022-11-03T10:12:14;97893.69;;;11.32;100.00
54936;BME280;40838;50.676;7.838;2022-11-03T10:14:42;97898.44;;;11.30;100.00
54936;BME280;40838;50.676;7.838;2022-11-03T10:17:14;97889.84;;;11.12;100.00
54936;BME280;40838;50.676;7.838;2022-11-03T10:19:44;97872.25;;;10.91;100.00
54936;BME280;40838;50.676;7.838;2022-11-03T10:22:14;97854.16;;;10.78;100.00
54936;BME280;40838;50.676;7.838;2022-11-03T10:24:41;97845.31;;;10.62;100.00
54936;BME280;40838;50.676;7.838;2022-11-03T10:27:20;97834.97;;;10.55;100.00
54936;BME280;40838;50.676;7.838;2022-11-03T10:30:05;97820.41;;;10.53;100.00
54936;BME280;40838;50.676;7.838;2022-11-03T10:32:33;97832.44;;;10.65;100.00
54936;BME280;40838;50.676;7.838;2022-11-03T10:35:01;97855.53;;;10.53;100.00
54936;BME280;40838;50.676;7.838;2022-11-03T10:37:28;97839.72;;;10.31;100.00
54936;BME280;40838;50.676;7.838;2022-11-03T10:39:56;97823.38;;;10.56;100.00
54936;BME280;40838;50.676;7.838;2022-11-03T10:42:31;97817.34;;;10.61;100.00
54936;BME280;40838;50.676;7.838;2022-11-03T10:45:10;97805.94;;;10.55;100.00
54936;BME280;40838;50.676;7.838;2022-11-03T10:47:42;97800.97;;;10.59;100.00
54936;BME280;40838;50.676;7.838;2022-11-03T10:50:20;97807.88;;;10.65;100.00
54936;BME280;40838;50.676;7.838;2022-11-03T10:52:47;97797.28;;;10.60;100.00
54936;BME280;40838;50.676;7.838;2022-11-03T10:55:15;97779.66;;;10.65;100.00
54936;BME280;40838;50.676;7.838;2022-11-03T10:57:43;97772.88;;;10.75;100.00
54936;BME280;40838;50.676;7.838;2022-11-03T11:00:13;97783.66;;;10.73;100.00
54936;BME280;40838;50.676;7.838;2022-11-03T11:02:45;97751.00;;;10.79;100.00
54936;BME280;40838;50.676;7.838;2022-11-03T11:05:17;97773.66;;;10.75;100.00
54936;BME280;40838;50.676;7.838;2022-11-03T11:07:46;97755.38;;;10.63;100.00
54936;BME280;40838;50.676;7.838;2022-11-03T11:10:18;97747.72;;;10.62;100.00
54936;BME280;40838;50.676;7.838;2022-11-03T11:13:23;97748.78;;;10.66;100.00
54936;BME280;40838;50.676;7.838;2022-11-03T11:15:51;97751.47;;;10.71;100.00
54936;BME280;40838;50.676;7.838;2022-11-03T11:21:59;97725.38;;;10.75;100.00
54936;BME280;40838;50.676;7.838;2022-11-03T11:24:55;97716.34;;;10.65;100.00
54936;BME280;40838;50.676;7.838;2022-11-03T11:27:53;97717.69;;;10.68;100.00
54936;BME280;40838;50.676;7.838;2022-11-03T11:33:47;97723.47;;;10.65;100.00
54936;BME280;40838;50.676;7.838;2022-11-03T11:36:23;97699.22;;;10.68;100.00
54936;BME280;40838;50.676;7.838;2022-11-03T11:39:00;97702.94;;;10.72;100.00
54936;BME280;40838;50.676;7.838;2022-11-03T11:44:54;97694.72;;;10.69;100.00
54936;BME280;40838;50.676;7.838;2022-11-03T11:47:48;97695.75;;;10.67;100.00
54936;BME280;40838;50.676;7.838;2022-11-03T11:50:27;97693.66;;;10.70;100.00
54936;BME280;40838;50.676;7.838;2022-11-03T11:52:58;97682.09;;;10.76;100.00
54936;BME280;40838;50.676;7.838;2022-11-03T11:55:32;97675.47;;;10.68;100.00
54936;BME280;40838;50.676;7.838;2022-11-03T11:58:00;97685.53;;;10.76;100.00
54936;BME280;40838;50.676;7.838;2022-11-03T12:00:30;97690.78;;;10.71;100.00
54936;BME280;40838;50.676;7.838;2022-11-03T12:02:58;97689.25;;;10.80;100.00
54936;BME280;40838;50.676;7.838;2022-11-03T12:05:30;97666.38;;;10.91;100.00
54936;BME280;40838;50.676;7.838;2022-11-03T12:07:57;97652.31;;;10.80;100.00
54936;BME280;40838;50.676;7.838;2022-11-03T12:10:26;97640.97;;;10.85;100.00
54936;BME280;40838;50.676;7.838;2022-11-03T12:12:54;97628.31;;;10.87;100.00
54936;BME280;40838;50.676;7.838;2022-11-03T12:15:49;97652.88;;;10.82;100.00
54936;BME280;40838;50.676;7.838;2022-11-03T12:18:34;97625.44;;;10.88;100.00
54936;BME280;40838;50.676;7.838;2022-11-03T12:21:04;97642.81;;;10.79;100.00
54936;BME280;40838;50.676;7.838;2022-11-03T12:23:41;97602.16;;;10.75;100.00
54936;BME280;40838;50.676;7.838;2022-11-03T12:26:14;97607.38;;;10.70;100.00
54936;BME280;40838;50.676;7.838;2022-11-03T12:28:42;97620.88;;;10.74;100.00
54936;BME280;40838;50.676;7.838;2022-11-03T12:31:09;97604.72;;;10.60;100.00
54936;BME280;40838;50.676;7.838;2022-11-03T12:33:37;97618.22;;;10.69;100.00
54936;BME280;40838;50.676;7.838;2022-11-03T12:36:08;97597.06;;;10.63;100.00
54936;BME280;40838;50.676;7.838;2022-11-03T12:38:36;97588.09;;;10.59;100.00
54936;BME280;40838;50.676;7.838;2022-11-03T12:41:02;97582.50;;;10.51;100.00
54936;BME280;40838;50.676;7.838;2022-11-03T12:43:43;97570.13;;;10.56;100.00
54936;BME280;40838;50.676;7.838;2022-11-03T12:46:10;97551.13;;;10.54;100.00
54936;BME280;40838;50.676;7.838;2022-11-03T12:48:40;97526.84;;;10.47;100.00
54936;BME280;40838;50.676;7.838;2022-11-03T12:51:11;97519.41;;;10.39;100.00
54936;BME280;40838;50.676;7.838;2022-11-03T12:53:40;97512.78;;;10.36;100.00
54936;BME280;40838;50.676;7.838;2022-11-03T12:56:08;97527.84;;;10.36;100.00
54936;BME280;40838;50.676;7.838;2022-11-03T12:58:36;97546.53;;;10.34;100.00
54936;BME280;40838;50.676;7.838;2022-11-03T13:01:13;97544.94;;;10.33;100.00
54936;BME280;40838;50.676;7.838;2022-11-03T13:03:40;97529.38;;;10.32;100.00
54936;BME280;40838;50.676;7.838;2022-11-03T13:06:08;97531.50;;;10.35;100.00
54936;BME280;40838;50.676;7.838;2022-11-03T13:08:37;97539.94;;;10.37;100.00
54936;BME280;40838;50.676;7.838;2022-11-03T13:11:04;97527.03;;;10.40;100.00
54936;BME280;40838;50.676;7.838;2022-11-03T13:13:52;97528.38;;;10.43;100.00
54936;BME280;40838;50.676;7.838;2022-11-03T13:16:20;97517.56;;;10.39;100.00
54936;BME280;40838;50.676;7.838;2022-11-03T13:18:46;97519.94;;;10.41;100.00
54936;BME280;40838;50.676;7.838;2022-11-03T13:21:15;97507.78;;;10.40;100.00
54936;BME280;40838;50.676;7.838;2022-11-03T13:23:44;97504.91;;;10.41;100.00
54936;BME280;40838;50.676;7.838;2022-11-03T13:26:13;97491.47;;;10.43;100.00
54936;BME280;40838;50.676;7.838;2022-11-03T13:28:40;97485.16;;;10.49;100.00
54936;BME280;40838;50.676;7.838;2022-11-03T13:31:07;97476.44;;;10.43;100.00